Time;durP1;ratioP1;P1;durP2;ratioP2;P2;SDS_P1;SDS_P2;PMS_P1;PMS_P2;Temp;Humidity;BMP_temperature;BMP_pressure;BME280_temperature;BME280_humidity;BME280_pressure;Samples;Min_cycle;Max_cycle;Signal;HPM_P1;HPM_P2
2021/11/07 00:00:48;;;;;;;24.10;18.45;;;;;;;12.53;56.43;101740.44;5055110;28;20040;-76
2021/11/07 00:03:23;;;;;;;19.05;15.73;;;;;;;12.66;56.94;101782.72;5069735;28;20046;-75
2021/11/07 00:06:07;;;;;;;23.13;17.45;;;;;;;12.79;56.21;101790.81;5069313;28;20119;-73
2021/11/07 00:11:04;;;;;;;23.83;18.50;;;;;;;12.71;56.76;101774.00;5068723;28;20059;-75
2021/11/07 00:13:29;;;;;;;21.00;16.50;;;;;;;12.94;55.63;101729.50;5070237;28;20041;-75
2021/11/07 00:15:59;;;;;;;21.55;17.40;;;;;;;12.81;55.98;101762.75;5071043;28;20404;-75
2021/11/07 00:18:32;;;;;;;25.02;18.00;;;;;;;13.07;55.81;101777.09;5070888;28;20040;-75
2021/11/07 00:21:09;;;;;;;19.70;16.50;;;;;;;13.58;54.76;101775.03;5071615;28;20028;-75
2021/11/07 00:26:10;;;;;;;20.40;16.25;;;;;;;14.44;52.62;101774.81;5070702;28;20046;-74
2021/11/07 00:28:44;;;;;;;22.17;17.48;;;;;;;14.66;52.04;101786.44;5085150;28;20032;-75
2021/11/07 00:31:23;;;;;;;28.15;17.33;;;;;;;14.79;51.94;101782.97;5071517;28;20036;-75
2021/11/07 00:36:22;;;;;;;22.67;16.92;;;;;;;14.69;50.90;101747.69;5078670;28;20044;-76
2021/11/07 00:38:53;;;;;;;22.80;16.30;;;;;;;14.44;51.47;101780.09;5070652;28;20055;-74
2021/11/07 00:41:30;;;;;;;21.80;16.98;;;;;;;14.18;51.34;101735.94;5069958;28;20051;-77
2021/11/07 00:44:04;;;;;;;24.10;16.00;;;;;;;14.64;51.19;101759.13;5079648;28;20430;-75
2021/11/07 00:49:06;;;;;;;24.00;16.40;;;;;;;14.30;51.69;101762.41;5081779;28;20040;-75
2021/11/07 00:54:25;;;;;;;20.10;17.35;;;;;;;14.40;51.53;101722.84;5071425;28;20090;-75
2021/11/07 00:56:54;;;;;;;25.58;16.75;;;;;;;14.87;50.84;101746.88;5071188;28;20024;-76
2021/11/07 01:02:18;;;;;;;24.63;17.80;;;;;;;15.13;50.54;101741.69;5069444;28;20061;-75
2021/11/07 01:04:46;;;;;;;21.75;16.42;;;;;;;14.85;50.55;101750.41;5069387;28;20155;-75
2021/11/07 01:07:13;;;;;;;18.98;15.68;;;;;;;14.80;50.72;101739.81;5069106;28;20036;-75
2021/11/07 01:09:39;;;;;;;25.58;17.75;;;;;;;15.03;50.50;101744.28;5070162;28;20123;-76
2021/11/07 01:12:05;;;;;;;23.65;16.23;;;;;;;14.99;50.18;101743.41;5071157;28;20519;-75
2021/11/07 01:14:31;;;;;;;22.10;15.77;;;;;;;14.78;49.95;101702.81;5072079;28;20024;-74
2021/11/07 01:16:56;;;;;;;24.50;16.83;;;;;;;15.10;50.06;101736.41;5080075;28;20135;-75
2021/11/07 01:19:22;;;;;;;25.38;16.95;;;;;;;14.52;50.59;101694.75;5069864;28;20075;-74
2021/11/07 01:21:48;;;;;;;31.80;16.77;;;;;;;14.25;52.46;101731.56;5071611;28;20442;-75
2021/11/07 01:24:32;;;;;;;21.70;17.25;;;;;;;13.79;53.49;101696.94;5070186;28;20029;-73
2021/11/07 01:29:43;;;;;;;22.13;16.48;;;;;;;13.82;53.95;101731.28;5074886;28;20036;-74
2021/11/07 01:32:09;;;;;;;25.38;19.00;;;;;;;13.40;55.42;101714.22;5073489;28;20032;-74
2021/11/07 01:37:13;;;;;;;30.40;18.13;;;;;;;14.25;52.85;101723.66;5073448;28;20041;-73
2021/11/07 01:42:11;;;;;;;24.83;16.83;;;;;;;14.92;51.66;101725.75;5076599;28;20067;-74
2021/11/07 01:44:48;;;;;;;21.52;17.48;;;;;;;14.81;51.77;101723.06;5056557;28;20040;-75
2021/11/07 01:47:15;;;;;;;21.60;16.92;;;;;;;14.88;51.28;101693.16;5074160;28;20472;-74
2021/11/07 01:49:42;;;;;;;24.67;16.52;;;;;;;14.70;51.69;101717.78;5073617;28;20397;-76
2021/11/07 01:52:09;;;;;;;26.13;17.55;;;;;;;14.65;52.17;101690.41;5087029;28;20394;-74
2021/11/07 01:57:28;;;;;;;28.88;16.85;;;;;;;14.13;53.27;101680.47;5073181;28;20032;-74
2021/11/07 01:59:58;;;;;;;25.85;18.52;;;;;;;14.64;52.57;101703.66;5071833;28;20032;-74
2021/11/07 02:02:28;;;;;;;22.55;17.15;;;;;;;14.82;52.21;101714.28;5073376;28;20043;-74
2021/11/07 02:04:53;;;;;;;25.50;17.85;;;;;;;13.97;53.28;101678.59;5073534;28;20043;-74
2021/11/07 02:07:19;;;;;;;23.15;17.35;;;;;;;14.02;53.71;101676.88;5072427;28;20033;-73
2021/11/07 02:09:45;;;;;;;24.25;16.88;;;;;;;14.47;53.02;101704.41;5072179;28;20048;-75
2021/11/07 02:12:11;;;;;;;22.30;16.23;;;;;;;14.63;52.68;101699.22;5079723;28;20100;-74
2021/11/07 02:14:37;;;;;;;21.45;16.00;;;;;;;14.83;51.78;101707.22;5078945;28;20039;-75
2021/11/07 02:17:03;;;;;;;22.88;17.02;;;;;;;14.70;51.71;101659.63;5080989;28;20058;-75
2021/11/07 02:19:29;;;;;;;24.75;17.15;;;;;;;14.69;51.21;101655.22;5056478;28;20036;-76
2021/11/07 02:21:55;;;;;;;28.35;17.27;;;;;;;14.90;51.24;101694.03;5073622;28;20029;-76
2021/11/07 02:24:21;;;;;;;20.60;15.88;;;;;;;14.78;51.33;101657.00;5071797;28;20412;-75
2021/11/07 02:26:51;;;;;;;22.38;16.40;;;;;;;14.94;51.67;101690.53;5075532;28;20036;-74
2021/11/07 02:29:17;;;;;;;23.70;16.50;;;;;;;14.81;51.82;101679.91;5074727;28;20032;-75
2021/11/07 02:31:43;;;;;;;25.95;17.75;;;;;;;14.83;51.35;101676.41;5074088;28;20028;-75
2021/11/07 02:34:08;;;;;;;21.67;16.80;;;;;;;14.93;51.05;101677.31;5075035;28;20486;-75
2021/11/07 02:36:34;;;;;;;19.98;16.63;;;;;;;15.04;51.46;101678.22;5083227;28;20024;-74
2021/11/07 02:38:59;;;;;;;24.20;15.68;;;;;;;15.09;51.91;101665.00;5080829;28;20024;-75
2021/11/07 02:41:25;;;;;;;23.95;15.90;;;;;;;15.01;51.51;101658.81;5073729;28;20197;-74
2021/11/07 02:43:53;;;;;;;20.52;15.88;;;;;;;14.71;52.17;101623.53;5076122;28;20041;-74
2021/11/07 02:46:19;;;;;;;26.23;15.65;;;;;;;14.92;51.96;101628.84;5061415;28;20060;-74
2021/11/07 02:48:52;;;;;;;19.77;14.95;;;;;;;15.04;52.32;101650.91;5068139;28;20033;-74
2021/11/07 02:51:32;;;;;;;19.55;14.52;;;;;;;15.09;52.17;101646.50;5069295;28;20111;-75
2021/11/07 02:54:03;;;;;;;20.30;15.63;;;;;;;15.05;52.37;101650.88;5069616;28;20391;-75
2021/11/07 02:56:29;;;;;;;27.85;15.43;;;;;;;14.90;51.92;101645.59;5066990;28;20104;-75
2021/11/07 02:58:55;;;;;;;23.63;16.95;;;;;;;14.66;51.96;101635.84;5057505;28;20062;-74
2021/11/07 03:01:23;;;;;;;22.27;15.30;;;;;;;14.04;52.57;101601.22;5052188;28;20064;-75
2021/11/07 03:03:49;;;;;;;25.80;18.45;;;;;;;14.28;53.50;101597.84;5052177;28;20508;-74
2021/11/07 03:06:15;;;;;;;21.65;13.93;;;;;;;14.62;53.44;101637.59;5052204;28;20037;-75
2021/11/07 03:08:43;;;;;;;19.23;16.70;;;;;;;14.60;53.00;101644.63;5049289;28;20032;-75
2021/11/07 03:11:11;;;;;;;20.05;14.35;;;;;;;14.41;53.40;101616.34;5052627;28;20068;-76
2021/11/07 03:13:37;;;;;;;23.63;16.25;;;;;;;14.18;53.52;101640.00;5053175;28;20036;-75
2021/11/07 03:16:12;;;;;;;22.00;17.05;;;;;;;13.80;54.34;101601.13;5051786;28;20057;-74
2021/11/07 03:18:39;;;;;;;24.17;15.93;;;;;;;14.03;54.21;101646.09;5052411;28;20035;-75
2021/11/07 03:21:11;;;;;;;23.88;14.55;;;;;;;13.77;54.72;101636.28;5063384;28;20352;-76
2021/11/07 03:23:43;;;;;;;26.00;17.13;;;;;;;14.00;54.80;101617.03;5057984;28;20045;-77
2021/11/07 03:26:14;;;;;;;18.40;16.02;;;;;;;14.05;54.50;101591.56;5050578;28;20130;-77
2021/11/07 03:28:42;;;;;;;24.02;15.00;;;;;;;14.26;53.79;101618.06;5052708;28;20492;-76
2021/11/07 03:31:28;;;;;;;25.20;17.02;;;;;;;14.31;54.36;101615.44;5051167;28;20033;-75
2021/11/07 03:33:59;;;;;;;24.48;16.58;;;;;;;13.70;55.03;101589.63;5051366;28;20049;-74
2021/11/07 03:36:25;;;;;;;20.05;15.52;;;;;;;13.36;56.66;101617.50;5052943;28;20054;-76
2021/11/07 03:38:54;;;;;;;23.50;17.23;;;;;;;13.45;56.83;101621.09;5051159;28;20077;-74
2021/11/07 03:41:20;;;;;;;24.27;17.70;;;;;;;13.29;57.19;101622.72;5050030;28;20043;-75
2021/11/07 03:43:47;;;;;;;24.52;16.27;;;;;;;13.29;56.95;101590.22;5068293;28;20044;-75
2021/11/07 03:46:15;;;;;;;27.83;17.25;;;;;;;13.47;57.09;101616.72;5073412;28;20042;-74
2021/11/07 03:48:41;;;;;;;23.60;17.30;;;;;;;13.24;57.82;101618.25;5073358;28;20029;-73
2021/11/07 03:51:11;;;;;;;26.08;18.00;;;;;;;13.01;57.30;101566.22;5070264;28;20491;-75
2021/11/07 03:53:37;;;;;;;25.60;17.63;;;;;;;13.08;57.97;101591.75;5070634;28;20352;-75
2021/11/07 03:56:03;;;;;;;19.65;17.33;;;;;;;13.01;58.02;101608.38;5085969;28;20097;-74
2021/11/07 03:58:28;;;;;;;20.98;17.45;;;;;;;11.94;60.78;101563.34;5072810;28;20044;-74
2021/11/07 04:00:54;;;;;;;23.77;18.08;;;;;;;12.01;61.26;101570.44;5072910;28;20032;-74
2021/11/07 04:03:19;;;;;;;24.25;18.45;;;;;;;12.26;60.99;101594.41;5072646;28;20043;-76
2021/11/07 04:05:45;;;;;;;24.38;17.05;;;;;;;11.82;61.77;101566.66;5085074;28;20043;-77
2021/11/07 04:08:10;;;;;;;24.83;18.30;;;;;;;12.03;61.50;101579.25;5070586;28;20033;-76
2021/11/07 04:10:36;;;;;;;27.10;18.92;;;;;;;11.75;62.42;101577.97;5070897;28;20032;-75
2021/11/07 04:13:05;;;;;;;23.58;19.05;;;;;;;11.85;62.38;101576.34;5070945;28;20035;-76
2021/11/07 04:15:31;;;;;;;27.90;18.83;;;;;;;11.89;62.43;101567.63;5071072;28;20028;-76
2021/11/07 04:17:57;;;;;;;22.73;17.90;;;;;;;12.42;61.29;101570.03;5072321;28;20040;-75
2021/11/07 04:20:23;;;;;;;24.50;18.58;;;;;;;12.97;59.45;101569.72;5082044;28;20518;-75
2021/11/07 04:22:49;;;;;;;28.50;19.00;;;;;;;12.52;60.48;101581.56;5070434;28;20043;-75
2021/11/07 04:25:15;;;;;;;21.60;18.00;;;;;;;12.28;60.65;101554.97;5070783;28;20052;-76
2021/11/07 04:27:41;;;;;;;21.52;17.27;;;;;;;11.99;61.45;101539.72;5070864;28;20123;-75
2021/11/07 04:30:08;;;;;;;20.75;16.95;;;;;;;12.04;61.51;101538.91;5070711;28;20119;-75
2021/11/07 04:32:34;;;;;;;25.13;18.23;;;;;;;12.19;61.84;101580.28;5073196;28;20032;-74
2021/11/07 04:35:00;;;;;;;26.08;16.75;;;;;;;12.41;61.32;101572.69;5069638;28;20055;-74
2021/11/07 04:37:26;;;;;;;23.70;18.25;;;;;;;12.28;60.65;101539.19;5070573;28;20041;-75
2021/11/07 04:39:52;;;;;;;25.90;18.17;;;;;;;12.63;60.04;101553.59;5072286;28;20039;-75
2021/11/07 04:42:18;;;;;;;23.98;15.98;;;;;;;12.86;59.71;101571.38;5052647;28;20511;-74
2021/11/07 04:44:43;;;;;;;24.95;16.65;;;;;;;12.99;59.24;101575.88;5071737;28;20055;-75
2021/11/07 04:47:09;;;;;;;19.75;16.58;;;;;;;12.94;59.78;101585.47;5069517;28;20059;-75
2021/11/07 04:49:35;;;;;;;24.70;16.45;;;;;;;12.94;59.69;101592.50;5065351;28;20043;-75
2021/11/07 04:52:01;;;;;;;25.08;16.40;;;;;;;12.60;59.83;101571.13;5071279;28;20045;-76
2021/11/07 04:54:29;;;;;;;22.00;17.50;;;;;;;12.80;59.91;101592.38;5070347;28;20033;-75
2021/11/07 04:56:55;;;;;;;18.42;15.65;;;;;;;13.08;59.05;101601.41;5070714;28;20146;-74
2021/11/07 04:59:21;;;;;;;24.27;16.63;;;;;;;12.95;59.31;101608.34;5071707;28;20127;-75
2021/11/07 05:01:47;;;;;;;19.38;16.55;;;;;;;12.51;60.29;101600.88;5081283;28;20103;-75
2021/11/07 05:04:13;;;;;;;21.60;15.57;;;;;;;12.41;60.70;101610.41;5070727;28;20033;-75
2021/11/07 05:06:39;;;;;;;21.60;17.60;;;;;;;11.42;63.54;101565.19;5074467;28;20085;-74
2021/11/07 05:09:05;;;;;;;28.90;17.58;;;;;;;12.08;62.80;101600.34;5076307;28;20847;-75
2021/11/07 05:11:31;;;;;;;20.90;17.75;;;;;;;11.34;64.44;101586.09;5075235;28;20039;-74
2021/11/07 05:13:57;;;;;;;25.55;17.10;;;;;;;11.09;65.21;101571.69;5073867;28;20491;-74
2021/11/07 05:16:22;;;;;;;24.23;17.92;;;;;;;11.29;64.81;101573.75;5073703;28;20032;-73
2021/11/07 05:18:48;;;;;;;22.88;17.90;;;;;;;11.23;65.29;101565.78;5069629;28;20036;-73
2021/11/07 05:21:14;;;;;;;24.60;17.33;;;;;;;11.41;64.82;101552.94;5077051;28;20032;-74
2021/11/07 05:23:40;;;;;;;25.25;16.17;;;;;;;11.28;65.76;101598.25;5074054;28;20037;-74
2021/11/07 05:26:05;;;;;;;20.55;16.65;;;;;;;11.50;65.09;101599.50;5085581;28;20051;-74
2021/11/07 05:28:33;;;;;;;22.83;15.82;;;;;;;12.04;63.57;101606.44;5072948;28;20035;-73
2021/11/07 05:31:00;;;;;;;20.80;16.83;;;;;;;11.35;64.85;101581.72;5073594;28;20035;-74
2021/11/07 05:33:26;;;;;;;23.27;16.35;;;;;;;11.63;65.27;101611.94;5073932;28;20048;-75
2021/11/07 05:35:52;;;;;;;27.77;15.82;;;;;;;11.47;64.80;101579.31;5074508;28;20040;-74
2021/11/07 05:38:19;;;;;;;27.45;17.98;;;;;;;11.80;64.60;101620.09;5055439;28;20047;-74
2021/11/07 05:40:45;;;;;;;24.42;17.50;;;;;;;11.40;65.17;101580.03;5074066;28;20037;-75
2021/11/07 05:43:10;;;;;;;22.05;18.02;;;;;;;11.36;65.80;101620.31;5072863;28;20091;-75
2021/11/07 05:45:36;;;;;;;24.67;17.13;;;;;;;11.08;66.79;101624.22;5072523;28;20037;-75
2021/11/07 05:48:02;;;;;;;23.98;17.90;;;;;;;10.98;66.82;101589.03;5076671;28;20028;-75
2021/11/07 05:50:28;;;;;;;23.13;16.35;;;;;;;11.02;66.99;101603.94;5057472;28;20171;-75
2021/11/07 05:52:53;;;;;;;23.98;15.77;;;;;;;10.85;67.40;101595.78;5074052;28;20503;-73
2021/11/07 05:55:19;;;;;;;30.05;18.35;;;;;;;10.66;68.29;101601.56;5074037;28;20039;-75
2021/11/07 05:57:45;;;;;;;22.50;15.75;;;;;;;10.66;69.20;101635.69;5088316;28;20028;-75
2021/11/07 06:00:14;;;;;;;25.38;17.05;;;;;;;10.77;68.79;101632.41;5074818;28;20040;-75
2021/11/07 06:02:40;;;;;;;26.65;19.30;;;;;;;10.85;68.17;101618.53;5056366;28;20043;-75
2021/11/07 06:05:06;;;;;;;23.77;16.92;;;;;;;11.33;66.58;101620.22;5073302;28;20055;-75
2021/11/07 06:07:32;;;;;;;23.42;16.92;;;;;;;10.90;67.58;101593.25;5073297;28;20033;-75
2021/11/07 06:09:59;;;;;;;27.48;16.45;;;;;;;11.22;67.02;101622.69;5055525;28;20527;-75
2021/11/07 06:12:24;;;;;;;19.40;15.50;;;;;;;11.56;65.59;101594.31;5072731;28;20032;-76
2021/11/07 06:14:50;;;;;;;21.17;16.05;;;;;;;12.00;64.86;101641.44;5073402;28;20120;-75
2021/11/07 06:17:15;;;;;;;27.08;14.90;;;;;;;11.92;64.52;101629.94;5075966;28;20051;-75
2021/11/07 06:19:41;;;;;;;23.33;17.48;;;;;;;11.19;66.50;101625.25;5075064;28;20028;-74
2021/11/07 06:22:07;;;;;;;27.92;18.88;;;;;;;10.75;67.52;101601.75;5085093;28;20033;-76
2021/11/07 06:24:32;;;;;;;29.83;18.08;;;;;;;10.87;67.25;101599.31;5068830;28;20123;-75
2021/11/07 06:26:59;;;;;;;24.27;15.55;;;;;;;11.55;65.47;101595.19;5054494;28;20047;-74
2021/11/07 06:29:26;;;;;;;25.52;17.55;;;;;;;11.95;64.67;101641.38;5073732;28;20040;-75
2021/11/07 06:31:53;;;;;;;25.30;18.60;;;;;;;11.69;65.29;101646.22;5073835;28;20086;-75
2021/11/07 06:34:20;;;;;;;24.08;19.10;;;;;;;11.75;64.97;101638.44;5073834;28;20028;-74
2021/11/07 06:36:46;;;;;;;27.90;20.40;;;;;;;11.11;66.92;101605.88;5071357;28;20032;-73
2021/11/07 06:39:12;;;;;;;27.35;19.48;;;;;;;11.08;67.54;101629.47;5071494;28;20032;-75
2021/11/07 06:41:38;;;;;;;23.48;18.48;;;;;;;11.22;67.33;101625.31;5072125;28;20039;-75
2021/11/07 06:44:04;;;;;;;33.42;20.70;;;;;;;11.63;66.50;101619.84;5071979;28;20091;-75
2021/11/07 06:46:29;;;;;;;40.47;23.40;;;;;;;11.04;67.00;101582.97;5055414;28;20403;-74
2021/11/07 06:48:55;;;;;;;27.27;20.40;;;;;;;11.57;66.27;101622.38;5073460;28;20032;-74
2021/11/07 06:51:22;;;;;;;33.88;22.13;;;;;;;11.75;65.55;101570.06;5072041;28;20071;-73
2021/11/07 06:53:48;;;;;;;28.60;22.58;;;;;;;11.92;64.89;101572.09;5080530;28;20177;-76
2021/11/07 06:56:14;;;;;;;26.27;21.60;;;;;;;12.08;64.60;101589.84;5055434;28;20041;-72
2021/11/07 06:58:41;;;;;;;32.95;20.40;;;;;;;12.16;64.92;101601.31;5054114;28;20082;-74
2021/11/07 07:01:07;;;;;;;25.55;21.73;;;;;;;12.24;64.91;101602.31;5074283;28;20060;-73
2021/11/07 07:03:32;;;;;;;33.08;23.95;;;;;;;11.94;65.75;101605.44;5054721;28;20074;-74
2021/11/07 07:05:58;;;;;;;26.20;21.10;;;;;;;12.16;65.27;101597.81;5071525;28;20424;-75
2021/11/07 07:08:27;;;;;;;29.65;21.65;;;;;;;12.24;64.88;101583.00;5072910;28;20822;-74
2021/11/07 07:10:58;;;;;;;26.15;20.55;;;;;;;12.10;65.41;101592.47;5074051;28;20170;-75
2021/11/07 07:13:31;;;;;;;30.25;20.10;;;;;;;11.99;65.91;101587.97;5070606;28;20036;-75
2021/11/07 07:34:23;;;;;;;38.38;23.92;;;;;;;12.65;65.14;101529.91;5074445;28;20041;-72
2021/11/07 07:36:50;;;;;;;28.30;22.05;;;;;;;12.99;65.36;101559.19;5072726;28;20035;-73
2021/11/07 07:39:15;;;;;;;31.23;21.63;;;;;;;13.13;64.40;101540.84;5061825;28;20033;-75
2021/11/07 07:41:41;;;;;;;37.17;22.50;;;;;;;13.20;65.07;101551.44;5079312;28;20098;-73
2021/11/07 07:44:08;;;;;;;31.50;22.08;;;;;;;13.10;65.43;101553.13;5084486;28;20176;-76
2021/11/07 07:46:42;;;;;;;31.33;22.95;;;;;;;12.92;66.44;101554.72;5057283;28;20555;-75
2021/11/07 07:49:08;;;;;;;25.45;22.00;;;;;;;12.76;65.94;101551.97;5082617;28;20032;-74
2021/11/07 07:51:35;;;;;;;32.72;21.48;;;;;;;12.43;66.76;101510.38;5080100;28;20040;-73
2021/11/07 07:54:02;;;;;;;36.42;23.70;;;;;;;12.87;66.06;101545.03;5085799;28;20245;-75
2021/11/07 07:56:31;;;;;;;37.67;23.33;;;;;;;12.88;65.67;101501.16;5084501;28;20399;-74
2021/11/07 07:58:57;;;;;;;27.55;22.38;;;;;;;13.67;64.16;101539.47;5083611;28;20039;-74
2021/11/07 08:01:23;;;;;;;26.02;20.88;;;;;;;13.32;64.80;101542.78;5075205;28;20031;-75
2021/11/07 08:03:50;;;;;;;35.15;22.95;;;;;;;13.19;65.29;101547.06;5075956;28;20036;-74
2021/11/07 08:06:15;;;;;;;28.23;19.98;;;;;;;13.50;64.63;101553.44;5069752;28;20060;-74
2021/11/07 08:08:41;;;;;;;27.70;21.35;;;;;;;13.58;64.15;101542.06;5086537;28;20070;-74
2021/11/07 08:11:07;;;;;;;34.28;23.65;;;;;;;13.92;63.05;101545.75;5082483;28;20028;-74
2021/11/07 08:13:33;;;;;;;28.55;21.75;;;;;;;13.54;64.14;101504.25;5074010;28;20487;-73
2021/11/07 08:15:58;;;;;;;29.27;20.90;;;;;;;13.81;64.17;101534.28;5071054;28;20040;-77
2021/11/07 08:18:24;;;;;;;32.65;21.15;;;;;;;14.04;63.94;101531.72;5068057;28;20040;-73
2021/11/07 08:20:50;;;;;;;26.02;19.33;;;;;;;14.25;62.83;101497.47;5073525;28;20046;-76
2021/11/07 08:23:17;;;;;;;28.20;20.23;;;;;;;14.30;63.46;101529.16;5068183;28;20115;-76
2021/11/07 08:25:43;;;;;;;30.80;20.25;;;;;;;13.78;64.25;101497.34;5069086;28;20480;-76
2021/11/07 08:28:09;;;;;;;27.33;18.10;;;;;;;14.46;62.99;101504.56;5069893;28;20050;-73
2021/11/07 08:30:39;;;;;;;25.65;17.92;;;;;;;14.52;62.78;101531.00;5077335;28;20036;-75
2021/11/07 08:33:06;;;;;;;26.83;18.90;;;;;;;14.46;62.94;101516.88;5078463;28;20046;-75
2021/11/07 08:35:33;;;;;;;25.42;19.20;;;;;;;15.36;61.19;101516.06;5059318;28;20394;-74
2021/11/07 08:40:39;;;;;;;22.27;17.85;;;;;;;14.56;63.12;101465.88;5071014;28;20418;-75
2021/11/07 09:02:32;;;;;;;30.10;19.98;;;;;;;15.89;60.13;101450.63;5074702;28;20077;-68
2021/11/07 09:09:59;;;;;;;27.73;19.40;;;;;;;14.46;64.31;101414.78;5069710;28;20037;-74
2021/11/07 09:12:25;;;;;;;28.85;19.92;;;;;;;14.93;63.58;101442.06;5060930;28;20020;-73
2021/11/07 09:14:51;;;;;;;28.75;19.95;;;;;;;15.24;62.32;101431.44;5077197;28;20044;-71
2021/11/07 09:17:17;;;;;;;37.70;20.83;;;;;;;14.93;63.80;101434.16;5075352;28;20048;-69
2021/11/07 09:19:47;;;;;;;28.48;20.98;;;;;;;15.24;62.30;101428.78;5063747;28;20032;-69
2021/11/07 09:22:38;;;;;;;25.60;20.23;;;;;;;15.31;62.54;101428.78;5070868;28;20036;-69
2021/11/07 09:25:07;;;;;;;24.20;18.08;;;;;;;15.94;60.85;101425.00;5077997;28;20495;-68
2021/11/07 09:27:50;;;;;;;25.73;17.40;;;;;;;15.07;62.86;101421.78;5078310;28;20043;-67
2021/11/07 09:30:25;;;;;;;33.50;21.40;;;;;;;14.78;63.59;101387.50;5074044;28;20040;-67
2021/11/07 09:35:39;;;;;;;24.63;17.17;;;;;;;15.88;61.21;101403.88;5073527;28;20068;-68
2021/11/07 09:38:12;;;;;;;22.55;16.20;;;;;;;16.25;59.19;101404.50;5081113;28;20035;-69
2021/11/07 09:40:44;;;;;;;20.10;15.43;;;;;;;15.66;61.52;101398.63;5070679;28;20032;-68
2021/11/07 09:43:16;;;;;;;25.05;14.60;;;;;;;16.01;60.65;101400.25;5075071;28;20055;-68
2021/11/07 09:45:56;;;;;;;24.33;14.87;;;;;;;16.04;60.09;101395.81;5083080;28;20039;-74
2021/11/07 09:48:28;;;;;;;26.85;16.02;;;;;;;16.07;59.85;101389.63;5081466;28;20471;-74
2021/11/07 09:50:55;;;;;;;19.67;15.40;;;;;;;15.90;60.47;101359.75;5080415;28;20033;-75
2021/11/07 09:53:21;;;;;;;24.55;16.02;;;;;;;15.78;60.94;101374.81;5077953;28;20473;-75
2021/11/07 09:56:02;;;;;;;31.30;22.17;;;;;;;16.37;59.81;101372.63;5087340;28;20111;-74
2021/11/07 09:58:27;;;;;;;22.30;14.55;;;;;;;16.64;57.91;101329.06;5071079;28;20031;-75
2021/11/07 10:00:55;;;;;;;23.00;17.55;;;;;;;16.58;59.61;101357.44;5069341;28;20044;-75
2021/11/07 10:03:25;;;;;;;24.52;18.08;;;;;;;16.98;57.92;101349.97;5079600;28;20036;-74
2021/11/07 10:05:52;;;;;;;23.00;17.05;;;;;;;16.90;58.38;101346.50;5086690;28;20043;-74
2021/11/07 10:08:18;;;;;;;27.90;17.75;;;;;;;17.55;56.83;101351.88;5069561;28;20483;-75
2021/11/07 10:11:06;;;;;;;25.52;17.27;;;;;;;17.98;55.04;101338.03;5082668;28;20035;-74
2021/11/07 10:13:33;;;;;;;23.73;16.33;;;;;;;18.33;54.43;101355.16;5076439;28;20463;-75
2021/11/07 10:16:11;;;;;;;18.55;15.35;;;;;;;17.91;54.66;101320.41;5089099;28;20028;-75
2021/11/07 10:21:13;;;;;;;19.73;16.55;;;;;;;17.32;55.92;101315.06;5074743;28;20068;-75
2021/11/07 10:23:43;;;;;;;20.13;15.45;;;;;;;18.19;54.66;101341.22;5083016;28;20137;-74
2021/11/07 10:28:46;;;;;;;27.08;15.82;;;;;;;17.76;55.40;101345.41;5073260;28;20074;-75
2021/11/07 10:31:25;;;;;;;24.08;15.10;;;;;;;17.00;57.03;101334.03;5069454;28;20031;-75
2021/11/07 10:53:51;;;;;;;25.30;15.07;;;;;;;17.20;57.41;101268.34;5083611;28;20050;-68
2021/11/07 10:56:18;;;;;;;22.55;15.52;;;;;;;15.87;61.72;101265.34;5075840;28;20032;-67
2021/11/07 10:58:48;;;;;;;21.92;17.08;;;;;;;15.78;63.14;101279.53;5070247;28;20032;-75
2021/11/07 11:01:21;;;;;;;28.63;16.60;;;;;;;16.72;60.45;101264.53;5075287;28;20128;-77
2021/11/07 11:03:53;;;;;;;25.80;18.37;;;;;;;17.16;59.11;101247.19;5076312;28;20032;-76
2021/11/07 11:06:19;;;;;;;22.70;15.48;;;;;;;17.34;58.08;101238.97;5073615;28;20110;-76
2021/11/07 11:08:56;;;;;;;19.08;14.63;;;;;;;17.63;57.78;101272.16;5069066;28;20176;-75
2021/11/07 11:11:37;;;;;;;25.05;16.35;;;;;;;17.50;58.29;101269.69;5074805;28;20032;-76
2021/11/07 11:14:19;;;;;;;18.23;13.50;;;;;;;17.58;58.28;101274.00;5056297;28;20089;-75
2021/11/07 11:20:00;;;;;;;27.48;15.15;;;;;;;17.23;59.18;101259.47;5084514;28;20050;-76
2021/11/07 11:32:44;;;;;;;21.48;16.40;;;;;;;16.81;60.33;101185.81;5082858;28;20407;-66
2021/11/07 11:45:25;;;;;;;14.50;12.48;;;;;;;17.34;56.93;101105.47;5086769;28;20468;-67
2021/11/07 11:56:52;;;;;;;36.13;18.05;;;;;;;18.53;55.27;101214.81;5069444;28;20538;-68
2021/11/07 12:00:09;;;;;;;23.27;15.82;;;;;;;16.54;59.97;101172.88;5069434;28;20132;-69
2021/11/07 12:05:11;;;;;;;20.65;14.30;;;;;;;16.59;60.81;101171.03;5070646;28;20093;-70
2021/11/07 12:07:45;;;;;;;28.58;15.07;;;;;;;15.70;62.23;101167.56;5083664;28;20501;-69
2021/11/07 12:11:12;;;;;;;21.45;16.38;;;;;;;16.00;62.48;101192.88;5078191;28;20048;-69
2021/11/07 12:13:58;;;;;;;20.45;16.48;;;;;;;16.73;60.36;101182.34;5062903;28;20063;-69
2021/11/07 12:17:08;;;;;;;20.83;14.05;;;;;;;17.68;57.23;101174.78;5078040;28;20036;-68
2021/11/07 12:19:42;;;;;;;20.35;14.75;;;;;;;17.37;58.16;101164.66;5079230;28;20040;-69
2021/11/07 12:22:22;;;;;;;17.42;14.43;;;;;;;17.93;56.79;101153.97;5082415;28;20087;-69
2021/11/07 12:24:48;;;;;;;30.77;22.10;;;;;;;18.34;55.44;101155.84;5079244;28;20061;-70
2021/11/07 12:27:19;;;;;;;23.70;16.63;;;;;;;18.32;54.72;101133.75;5071811;28;20767;-69
2021/11/07 12:29:46;;;;;;;18.25;13.00;;;;;;;17.63;55.90;101139.44;5082736;28;21474;-69
2021/11/07 12:32:12;;;;;;;19.33;12.88;;;;;;;17.80;56.45;101134.72;5070993;28;20037;-69
2021/11/07 12:41:04;;;;;;;21.02;13.90;;;;;;;17.72;56.84;101139.28;5072198;28;20165;-69
2021/11/07 12:44:02;;;;;;;18.80;12.68;;;;;;;18.17;55.74;101133.16;5077816;28;20056;-70
2021/11/07 12:46:58;;;;;;;18.65;12.40;;;;;;;17.89;55.94;101100.06;5066073;28;20407;-68
2021/11/07 12:49:27;;;;;;;16.15;13.90;;;;;;;18.34;54.31;101093.84;5070467;28;20028;-70
2021/11/07 12:52:07;;;;;;;22.52;18.02;;;;;;;18.59;55.62;101114.56;5071450;28;20119;-69
2021/11/07 12:54:32;;;;;;;42.03;33.47;;;;;;;18.86;55.20;101108.69;5079585;28;20061;-68
2021/11/07 12:56:58;;;;;;;21.50;16.50;;;;;;;18.66;55.88;101118.84;5070819;28;20099;-69
2021/11/07 12:59:23;;;;;;;21.60;15.73;;;;;;;18.47;56.26;101105.09;5081018;28;20478;-68
2021/11/07 13:02:03;;;;;;;35.78;16.38;;;;;;;18.16;56.91;101107.53;5080919;28;20046;-68
2021/11/07 13:05:03;;;;;;;31.48;21.70;;;;;;;18.13;56.88;101096.06;5079450;28;20577;-69
2021/11/07 13:07:40;;;;;;;32.30;23.75;;;;;;;18.39;56.65;101093.75;5020216;28;20139;-70
2021/11/07 13:10:10;;;;;;;20.42;16.15;;;;;;;18.10;57.03;101096.13;5055319;28;20474;-69
2021/11/07 13:12:45;;;;;;;23.73;16.02;;;;;;;18.46;56.10;101090.06;5082418;28;20837;-68
2021/11/07 13:18:02;;;;;;;31.33;16.30;;;;;;;18.03;57.52;101086.53;5077917;28;20073;-69
2021/11/07 13:26:07;;;;;;;20.48;15.88;;;;;;;18.27;57.38;101052.38;5082697;28;20056;-70
2021/11/07 13:28:40;;;;;;;23.77;17.98;;;;;;;17.00;60.06;101037.06;5072474;28;20029;-68
2021/11/07 13:31:41;;;;;;;22.58;15.43;;;;;;;16.75;62.02;101063.06;5077631;28;20085;-70
2021/11/07 13:34:11;;;;;;;22.73;17.17;;;;;;;17.65;59.56;101058.00;5075583;28;20044;-70
2021/11/07 13:36:44;;;;;;;23.40;16.50;;;;;;;17.30;60.20;101070.13;5075581;28;20066;-69
2021/11/07 13:39:13;;;;;;;26.65;20.52;;;;;;;17.44;60.11;101078.75;5075139;28;20037;-70
2021/11/07 13:41:41;;;;;;;22.00;17.13;;;;;;;17.41;59.99;101031.03;5082850;28;20494;-69
2021/11/07 13:44:15;;;;;;;19.75;14.52;;;;;;;17.90;58.43;101039.88;5055764;28;20056;-69
2021/11/07 13:46:53;;;;;;;28.63;16.10;;;;;;;18.16;57.86;101030.50;5089266;28;20066;-71
2021/11/07 13:49:20;;;;;;;25.63;17.30;;;;;;;18.01;58.61;101059.13;5080234;28;20056;-69